sensor_id;sensor_type;location;lat;lon;timestamp;pressure;altitude;pressure_sealevel;temperature;humidity
18819;BME280;9537;45.594;9.294;2023-02-01T00:00:36;100113.84;;;2.15;73.75
18819;BME280;9537;45.594;9.294;2023-02-01T00:01:39;100120.13;;;2.12;74.24
18819;BME280;9537;45.594;9.294;2023-02-01T00:02:40;100119.16;;;2.13;74.17
18819;BME280;9537;45.594;9.294;2023-02-01T00:03:42;100116.03;;;2.08;73.60
18819;BME280;9537;45.594;9.294;2023-02-01T00:04:44;100114.16;;;2.10;74.02
18819;BME280;9537;45.594;9.294;2023-02-01T00:05:54;100118.78;;;2.07;73.73
18819;BME280;9537;45.594;9.294;2023-02-01T00:06:56;100117.00;;;2.07;73.44
18819;BME280;9537;45.594;9.294;2023-02-01T00:07:58;100117.22;;;2.04;73.83
18819;BME280;9537;45.594;9.294;2023-02-01T00:08:58;100116.38;;;2.03;73.54
18819;BME280;9537;45.594;9.294;2023-02-01T00:10:00;100115.53;;;2.03;73.39
18819;BME280;9537;45.594;9.294;2023-02-01T00:11:03;100116.69;;;1.99;74.21
18819;BME280;9537;45.594;9.294;2023-02-01T00:12:06;100126.28;;;1.98;74.22
18819;BME280;9537;45.594;9.294;2023-02-01T00:13:07;100111.47;;;1.99;73.85
18819;BME280;9537;45.594;9.294;2023-02-01T00:14:09;100115.03;;;1.98;73.80
18819;BME280;9537;45.594;9.294;2023-02-01T00:15:10;100111.47;;;1.99;73.59
18819;BME280;9537;45.594;9.294;2023-02-01T00:16:15;100117.72;;;1.96;73.92
18819;BME280;9537;45.594;9.294;2023-02-01T00:17:16;100113.34;;;1.97;73.92
18819;BME280;9537;45.594;9.294;2023-02-01T00:18:18;100112.72;;;1.93;74.62
18819;BME280;9537;45.594;9.294;2023-02-01T00:19:19;100117.34;;;1.90;74.23
18819;BME280;9537;45.594;9.294;2023-02-01T00:20:21;100111.38;;;1.88;74.62
18819;BME280;9537;45.594;9.294;2023-02-01T00:21:22;100108.91;;;1.86;75.12
18819;BME280;9537;45.594;9.294;2023-02-01T00:22:24;100113.25;;;1.86;74.44
18819;BME280;9537;45.594;9.294;2023-02-01T00:23:26;100110.25;;;1.79;74.98
18819;BME280;9537;45.594;9.294;2023-02-01T00:24:28;100115.16;;;1.84;75.02
18819;BME280;9537;45.594;9.294;2023-02-01T00:25:29;100116.50;;;1.76;74.38
18819;BME280;9537;45.594;9.294;2023-02-01T00:26:33;100116.28;;;1.79;74.23
18819;BME280;9537;45.594;9.294;2023-02-01T00:27:34;100117.97;;;1.80;74.48
18819;BME280;9537;45.594;9.294;2023-02-01T00:28:36;100117.03;;;1.82;74.49
18819;BME280;9537;45.594;9.294;2023-02-01T00:29:37;100116.41;;;1.78;75.15
18819;BME280;9537;45.594;9.294;2023-02-01T00:30:39;100118.19;;;1.77;75.14
18819;BME280;9537;45.594;9.294;2023-02-01T00:31:41;100112.97;;;1.77;74.94
18819;BME280;9537;45.594;9.294;2023-02-01T00:32:43;100112.03;;;1.78;74.99
18819;BME280;9537;45.594;9.294;2023-02-01T00:33:46;100110.38;;;1.77;75.01
18819;BME280;9537;45.594;9.294;2023-02-01T00:34:48;100111.50;;;1.73;75.19
18819;BME280;9537;45.594;9.294;2023-02-01T00:35:50;100108.28;;;1.70;75.01
18819;BME280;9537;45.594;9.294;2023-02-01T00:36:51;100108.16;;;1.71;75.59
18819;BME280;9537;45.594;9.294;2023-02-01T00:37:53;100104.72;;;1.71;75.61
18819;BME280;9537;45.594;9.294;2023-02-01T00:38:54;100105.69;;;1.70;75.17
18819;BME280;9537;45.594;9.294;2023-02-01T00:39:56;100110.16;;;1.68;74.86
18819;BME280;9537;45.594;9.294;2023-02-01T00:41:02;100102.56;;;1.65;75.59
18819;BME280;9537;45.594;9.294;2023-02-01T00:42:04;100109.09;;;1.70;75.11
18819;BME280;9537;45.594;9.294;2023-02-01T00:43:05;100114.00;;;1.75;75.45
18819;BME280;9537;45.594;9.294;2023-02-01T00:44:07;100109.72;;;1.74;75.27
18819;BME280;9537;45.594;9.294;2023-02-01T00:45:09;100106.28;;;1.73;74.94
18819;BME280;9537;45.594;9.294;2023-02-01T00:46:12;100105.69;;;1.70;75.47
18819;BME280;9537;45.594;9.294;2023-02-01T00:47:15;100110.97;;;1.68;75.15
18819;BME280;9537;45.594;9.294;2023-02-01T00:48:17;100109.19;;;1.69;74.91
18819;BME280;9537;45.594;9.294;2023-02-01T00:49:18;100112.13;;;1.64;75.71
18819;BME280;9537;45.594;9.294;2023-02-01T00:50:20;100100.91;;;1.64;75.36
18819;BME280;9537;45.594;9.294;2023-02-01T00:51:22;100111.31;;;1.64;74.99
18819;BME280;9537;45.594;9.294;2023-02-01T00:52:24;100100.25;;;1.60;75.45
18819;BME280;9537;45.594;9.294;2023-02-01T00:53:25;100106.41;;;1.59;75.39
18819;BME280;9537;45.594;9.294;2023-02-01T00:54:27;100104.53;;;1.61;75.54
18819;BME280;9537;45.594;9.294;2023-02-01T00:55:28;100106.19;;;1.62;76.04
18819;BME280;9537;45.594;9.294;2023-02-01T00:56:30;100099.94;;;1.65;75.24
18819;BME280;9537;45.594;9.294;2023-02-01T00:57:31;100102.47;;;1.66;75.13
18819;BME280;9537;45.594;9.294;2023-02-01T00:58:33;100094.00;;;1.63;75.25
18819;BME280;9537;45.594;9.294;2023-02-01T00:59:35;100100.16;;;1.62;75.07
18819;BME280;9537;45.594;9.294;2023-02-01T01:00:37;100101.19;;;1.59;75.12
18819;BME280;9537;45.594;9.294;2023-02-01T01:01:38;100096.13;;;1.57;75.43
18819;BME280;9537;45.594;9.294;2023-02-01T01:02:42;100094.34;;;1.58;75.38
18819;BME280;9537;45.594;9.294;2023-02-01T01:03:46;100098.91;;;1.54;75.30
18819;BME280;9537;45.594;9.294;2023-02-01T01:04:48;100095.25;;;1.57;75.66
18819;BME280;9537;45.594;9.294;2023-02-01T01:05:50;100097.84;;;1.57;75.54
18819;BME280;9537;45.594;9.294;2023-02-01T01:06:52;100096.94;;;1.58;75.52
18819;BME280;9537;45.594;9.294;2023-02-01T01:07:55;100098.50;;;1.61;75.61
18819;BME280;9537;45.594;9.294;2023-02-01T01:08:57;100093.16;;;1.62;75.70
18819;BME280;9537;45.594;9.294;2023-02-01T01:09:59;100098.16;;;1.65;75.69
18819;BME280;9537;45.594;9.294;2023-02-01T01:11:04;100094.88;;;1.63;75.76
18819;BME280;9537;45.594;9.294;2023-02-01T01:12:07;100093.09;;;1.64;75.44
18819;BME280;9537;45.594;9.294;2023-02-01T01:13:08;100091.19;;;1.66;75.35
18819;BME280;9537;45.594;9.294;2023-02-01T01:14:10;100094.75;;;1.65;75.56
18819;BME280;9537;45.594;9.294;2023-02-01T01:15:11;100097.34;;;1.65;74.80
18819;BME280;9537;45.594;9.294;2023-02-01T01:16:13;100103.38;;;1.65;74.78
18819;BME280;9537;45.594;9.294;2023-02-01T01:17:14;100089.97;;;1.58;75.16
18819;BME280;9537;45.594;9.294;2023-02-01T01:18:18;100095.25;;;1.57;74.60
18819;BME280;9537;45.594;9.294;2023-02-01T01:19:19;100097.84;;;1.57;75.27
18819;BME280;9537;45.594;9.294;2023-02-01T01:20:21;100100.56;;;1.55;74.57
18819;BME280;9537;45.594;9.294;2023-02-01T01:21:22;100100.56;;;1.55;75.56
18819;BME280;9537;45.594;9.294;2023-02-01T01:22:24;100096.94;;;1.58;75.34
18819;BME280;9537;45.594;9.294;2023-02-01T01:23:25;100096.94;;;1.58;75.41
18819;BME280;9537;45.594;9.294;2023-02-01T01:24:27;100104.09;;;1.54;75.16
18819;BME280;9537;45.594;9.294;2023-02-01T01:25:28;100096.28;;;1.54;74.65
18819;BME280;9537;45.594;9.294;2023-02-01T01:26:30;100100.56;;;1.55;74.86
18819;BME280;9537;45.594;9.294;2023-02-01T01:27:31;100099.00;;;1.53;74.92
18819;BME280;9537;45.594;9.294;2023-02-01T01:28:33;100101.72;;;1.51;75.12
18819;BME280;9537;45.594;9.294;2023-02-01T01:29:34;100097.38;;;1.52;75.34
18819;BME280;9537;45.594;9.294;2023-02-01T01:30:36;100102.66;;;1.50;74.79
18819;BME280;9537;45.594;9.294;2023-02-01T01:31:37;100094.44;;;1.44;74.90
18819;BME280;9537;45.594;9.294;2023-02-01T01:32:39;100095.25;;;1.44;75.16
18819;BME280;9537;45.594;9.294;2023-02-01T01:33:41;100098.91;;;1.42;75.95
18819;BME280;9537;45.594;9.294;2023-02-01T01:34:44;100090.28;;;1.41;75.82
18819;BME280;9537;45.594;9.294;2023-02-01T01:35:45;100097.47;;;1.38;75.95
18819;BME280;9537;45.594;9.294;2023-02-01T01:36:47;100094.00;;;1.37;75.68
18819;BME280;9537;45.594;9.294;2023-02-01T01:37:49;100097.34;;;1.39;75.81
18819;BME280;9537;45.594;9.294;2023-02-01T01:38:50;100092.34;;;1.36;75.37
18819;BME280;9537;45.594;9.294;2023-02-01T01:39:52;100094.00;;;1.37;75.09
18819;BME280;9537;45.594;9.294;2023-02-01T01:40:53;100087.97;;;1.37;75.83
18819;BME280;9537;45.594;9.294;2023-02-01T01:41:54;100093.16;;;1.37;75.86
18819;BME280;9537;45.594;9.294;2023-02-01T01:42:56;100093.38;;;1.33;75.53
18819;BME280;9537;45.594;9.294;2023-02-01T01:44:00;100090.03;;;1.31;76.31
18819;BME280;9537;45.594;9.294;2023-02-01T01:45:04;100081.41;;;1.31;76.32
18819;BME280;9537;45.594;9.294;2023-02-01T01:46:06;100092.84;;;1.28;76.81
18819;BME280;9537;45.594;9.294;2023-02-01T01:47:08;100086.72;;;1.29;76.50
18819;BME280;9537;45.594;9.294;2023-02-01T01:48:15;100080.69;;;1.29;76.90
18819;BME280;9537;45.594;9.294;2023-02-01T01:49:20;100087.56;;;1.30;76.10
18819;BME280;9537;45.594;9.294;2023-02-01T01:50:27;100088.38;;;1.30;76.33
18819;BME280;9537;45.594;9.294;2023-02-01T01:51:29;100087.13;;;1.36;76.58
18819;BME280;9537;45.594;9.294;2023-02-01T01:52:33;100088.09;;;1.35;75.90
18819;BME280;9537;45.594;9.294;2023-02-01T01:53:38;100086.09;;;1.39;76.19
18819;BME280;9537;45.594;9.294;2023-02-01T01:54:47;100083.59;;;1.37;76.03
18819;BME280;9537;45.594;9.294;2023-02-01T01:55:52;100085.28;;;1.38;76.31
18819;BME280;9537;45.594;9.294;2023-02-01T01:56:58;100087.13;;;1.36;75.56
18819;BME280;9537;45.594;9.294;2023-02-01T01:58:04;100082.56;;;1.40;75.36
18819;BME280;9537;45.594;9.294;2023-02-01T01:59:07;100078.16;;;1.40;75.63
18819;BME280;9537;45.594;9.294;2023-02-01T02:00:12;100075.47;;;1.42;74.76
18819;BME280;9537;45.594;9.294;2023-02-01T02:01:14;100076.31;;;1.42;75.14
18819;BME280;9537;45.594;9.294;2023-02-01T02:02:18;100072.88;;;1.42;75.12
18819;BME280;9537;45.594;9.294;2023-02-01T02:03:26;100079.03;;;1.41;74.80
18819;BME280;9537;45.594;9.294;2023-02-01T02:04:31;100076.63;;;1.38;75.31
18819;BME280;9537;45.594;9.294;2023-02-01T02:05:33;100077.56;;;1.37;75.53
18819;BME280;9537;45.594;9.294;2023-02-01T02:06:40;100073.91;;;1.39;74.92
18819;BME280;9537;45.594;9.294;2023-02-01T02:07:46;100071.53;;;1.36;75.46
18819;BME280;9537;45.594;9.294;2023-02-01T02:08:48;100074.13;;;1.36;75.38
18819;BME280;9537;45.594;9.294;2023-02-01T02:09:49;100069.34;;;1.30;75.57
18819;BME280;9537;45.594;9.294;2023-02-01T02:10:52;100073.81;;;1.28;75.67
18819;BME280;9537;45.594;9.294;2023-02-01T02:12:02;100073.72;;;1.29;75.65
18819;BME280;9537;45.594;9.294;2023-02-01T02:13:04;100070.56;;;1.24;75.97
18819;BME280;9537;45.594;9.294;2023-02-01T02:14:08;100077.56;;;1.24;75.25
18819;BME280;9537;45.594;9.294;2023-02-01T02:15:13;100076.53;;;1.26;76.09
18819;BME280;9537;45.594;9.294;2023-02-01T02:16:34;100076.31;;;1.29;75.88
18819;BME280;9537;45.594;9.294;2023-02-01T02:17:44;100069.00;;;1.22;75.48
18819;BME280;9537;45.594;9.294;2023-02-01T02:18:57;100072.44;;;1.22;75.97
18819;BME280;9537;45.594;9.294;2023-02-01T02:20:27;100071.09;;;1.17;75.96
18819;BME280;9537;45.594;9.294;2023-02-01T02:21:48;100068.91;;;1.10;76.15
18819;BME280;9537;45.594;9.294;2023-02-01T02:23:17;100071.78;;;1.06;75.27
18819;BME280;9537;45.594;9.294;2023-02-01T02:24:52;100071.09;;;1.04;75.49
18819;BME280;9537;45.594;9.294;2023-02-01T02:26:20;100060.69;;;1.04;76.10
18819;BME280;9537;45.594;9.294;2023-02-01T02:27:30;100072.00;;;1.03;76.16
18819;BME280;9537;45.594;9.294;2023-02-01T02:32:07;100062.13;;;1.08;76.02
18819;BME280;9537;45.594;9.294;2023-02-01T02:35:00;100062.25;;;1.06;76.11
18819;BME280;9537;45.594;9.294;2023-02-01T02:36:07;100066.50;;;1.07;75.97
18819;BME280;9537;45.594;9.294;2023-02-01T02:37:18;100062.13;;;1.08;76.59
18819;BME280;9537;45.594;9.294;2023-02-01T02:38:30;100062.88;;;1.10;76.18
18819;BME280;9537;45.594;9.294;2023-02-01T02:39:40;100058.28;;;1.13;75.65
18819;BME280;9537;45.594;9.294;2023-02-01T02:40:49;100057.53;;;1.11;75.98
18819;BME280;9537;45.594;9.294;2023-02-01T02:41:58;100054.84;;;1.13;76.15
18819;BME280;9537;45.594;9.294;2023-02-01T02:43:22;100057.03;;;1.19;76.01
18819;BME280;9537;45.594;9.294;2023-02-01T02:44:46;100054.22;;;1.22;75.49
18819;BME280;9537;45.594;9.294;2023-02-01T02:46:06;100047.47;;;1.20;75.17
18819;BME280;9537;45.594;9.294;2023-02-01T02:47:36;100051.75;;;1.21;75.14
18819;BME280;9537;45.594;9.294;2023-02-01T02:48:45;100051.75;;;1.21;75.21
18819;BME280;9537;45.594;9.294;2023-02-01T02:49:55;100056.09;;;1.20;75.49
18819;BME280;9537;45.594;9.294;2023-02-01T02:51:15;100048.28;;;1.20;74.64
18819;BME280;9537;45.594;9.294;2023-02-01T02:52:44;100047.66;;;1.17;75.18
18819;BME280;9537;45.594;9.294;2023-02-01T02:54:07;100044.53;;;1.11;75.57
18819;BME280;9537;45.594;9.294;2023-02-01T02:55:28;100044.03;;;1.06;75.04
18819;BME280;9537;45.594;9.294;2023-02-01T02:56:32;100052.97;;;1.02;75.80
18819;BME280;9537;45.594;9.294;2023-02-01T02:57:53;100041.09;;;0.98;76.11
18819;BME280;9537;45.594;9.294;2023-02-01T02:59:17;100050.03;;;0.94;75.78
18819;BME280;9537;45.594;9.294;2023-02-01T03:00:39;100050.88;;;0.95;75.68
18819;BME280;9537;45.594;9.294;2023-02-01T03:01:59;100048.16;;;0.96;75.99
18819;BME280;9537;45.594;9.294;2023-02-01T03:03:19;100053.56;;;0.93;76.22
18819;BME280;9537;45.594;9.294;2023-02-01T03:04:38;100049.41;;;0.90;75.86
18819;BME280;9537;45.594;9.294;2023-02-01T03:05:43;100049.81;;;0.84;75.79
18819;BME280;9537;45.594;9.294;2023-02-01T03:06:46;100045.03;;;0.78;76.24
18819;BME280;9537;45.594;9.294;2023-02-01T03:08:02;100046.88;;;0.76;76.47
18819;BME280;9537;45.594;9.294;2023-02-01T03:09:10;100040.75;;;0.77;76.17
18819;BME280;9537;45.594;9.294;2023-02-01T03:10:18;100047.50;;;0.80;76.04
18819;BME280;9537;45.594;9.294;2023-02-01T03:11:25;100049.28;;;0.79;76.83
18819;BME280;9537;45.594;9.294;2023-02-01T03:12:49;100045.75;;;0.80;76.57
18819;BME280;9537;45.594;9.294;2023-02-01T03:14:00;100047.41;;;0.81;76.25
18819;BME280;9537;45.594;9.294;2023-02-01T03:15:07;100047.31;;;0.83;76.64
18819;BME280;9537;45.594;9.294;2023-02-01T03:16:13;100046.06;;;0.88;76.16
18819;BME280;9537;45.594;9.294;2023-02-01T03:17:19;100050.25;;;0.91;76.17
18819;BME280;9537;45.594;9.294;2023-02-01T03:18:27;100045.16;;;0.89;75.97
18819;BME280;9537;45.594;9.294;2023-02-01T03:19:35;100057.94;;;0.93;76.30
18819;BME280;9537;45.594;9.294;2023-02-01T03:20:40;100054.53;;;0.92;75.33
18819;BME280;9537;45.594;9.294;2023-02-01T03:21:48;100042.34;;;0.93;75.69
18819;BME280;9537;45.594;9.294;2023-02-01T03:22:51;100045.88;;;0.92;75.31
18819;BME280;9537;45.594;9.294;2023-02-01T03:23:57;100048.66;;;0.88;75.36
18819;BME280;9537;45.594;9.294;2023-02-01T03:25:03;100041.06;;;0.85;75.26
18819;BME280;9537;45.594;9.294;2023-02-01T03:26:09;100036.00;;;0.84;75.44
18819;BME280;9537;45.594;9.294;2023-02-01T03:27:17;100037.34;;;0.89;75.78
18819;BME280;9537;45.594;9.294;2023-02-01T03:28:22;100038.59;;;0.84;75.48
18819;BME280;9537;45.594;9.294;2023-02-01T03:29:29;100052.72;;;0.80;75.52
18819;BME280;9537;45.594;9.294;2023-02-01T03:30:35;100040.75;;;0.77;75.99
18819;BME280;9537;45.594;9.294;2023-02-01T03:31:36;100046.69;;;0.79;75.35
18819;BME280;9537;45.594;9.294;2023-02-01T03:32:42;100050.22;;;0.78;75.53
18819;BME280;9537;45.594;9.294;2023-02-01T03:33:59;100047.50;;;0.80;76.19
18819;BME280;9537;45.594;9.294;2023-02-01T03:35:01;100050.97;;;0.80;76.26
18819;BME280;9537;45.594;9.294;2023-02-01T03:36:18;100055.97;;;0.83;76.09
18819;BME280;9537;45.594;9.294;2023-02-01T03:37:27;100050.66;;;0.85;75.54
18819;BME280;9537;45.594;9.294;2023-02-01T03:38:31;100050.66;;;0.85;75.36
18819;BME280;9537;45.594;9.294;2023-02-01T03:39:37;100052.22;;;0.87;75.29
18819;BME280;9537;45.594;9.294;2023-02-01T03:40:41;100049.41;;;0.90;75.92
18819;BME280;9537;45.594;9.294;2023-02-01T03:41:49;100047.34;;;0.96;75.30
18819;BME280;9537;45.594;9.294;2023-02-01T03:42:54;100050.78;;;0.96;75.59
18819;BME280;9537;45.594;9.294;2023-02-01T03:44:03;100055.22;;;0.94;75.58
18819;BME280;9537;45.594;9.294;2023-02-01T03:45:08;100045.56;;;0.96;75.14
18819;BME280;9537;45.594;9.294;2023-02-01T03:46:17;100054.41;;;0.94;74.77
18819;BME280;9537;45.594;9.294;2023-02-01T03:47:21;100050.25;;;0.91;75.22
18819;BME280;9537;45.594;9.294;2023-02-01T03:48:26;100047.75;;;0.89;75.16
18819;BME280;9537;45.594;9.294;2023-02-01T03:49:33;100051.28;;;0.88;75.31
18819;BME280;9537;45.594;9.294;2023-02-01T03:50:40;100047.00;;;0.87;75.64
18819;BME280;9537;45.594;9.294;2023-02-01T03:51:44;100048.88;;;0.85;75.33
18819;BME280;9537;45.594;9.294;2023-02-01T03:52:51;100050.56;;;0.86;75.76
18819;BME280;9537;45.594;9.294;2023-02-01T03:53:53;100049.63;;;0.87;75.58
18819;BME280;9537;45.594;9.294;2023-02-01T03:54:56;100049.81;;;0.84;76.04
18819;BME280;9537;45.594;9.294;2023-02-01T03:55:58;100050.56;;;0.86;75.70
18819;BME280;9537;45.594;9.294;2023-02-01T03:57:05;100046.06;;;0.88;75.27
18819;BME280;9537;45.594;9.294;2023-02-01T03:58:12;100045.88;;;0.92;75.05
18819;BME280;9537;45.594;9.294;2023-02-01T03:59:15;100050.34;;;0.89;75.01
18819;BME280;9537;45.594;9.294;2023-02-01T04:00:19;100046.06;;;0.88;76.02
18819;BME280;9537;45.594;9.294;2023-02-01T04:01:22;100044.94;;;0.93;75.63
18819;BME280;9537;45.594;9.294;2023-02-01T04:02:23;100045.69;;;0.95;75.94
18819;BME280;9537;45.594;9.294;2023-02-01T04:03:26;100046.31;;;0.98;75.95
18819;BME280;9537;45.594;9.294;2023-02-01T04:04:30;100050.69;;;0.98;75.08
18819;BME280;9537;45.594;9.294;2023-02-01T04:05:33;100047.34;;;0.96;74.92
18819;BME280;9537;45.594;9.294;2023-02-01T04:06:34;100048.28;;;0.95;75.69
18819;BME280;9537;45.594;9.294;2023-02-01T04:07:36;100051.81;;;0.94;75.54
18819;BME280;9537;45.594;9.294;2023-02-01T04:08:38;100048.47;;;0.92;74.74
18819;BME280;9537;45.594;9.294;2023-02-01T04:09:40;100049.53;;;0.89;75.66
18819;BME280;9537;45.594;9.294;2023-02-01T04:10:41;100046.81;;;0.90;75.49
18819;BME280;9537;45.594;9.294;2023-02-01T04:11:44;100040.78;;;0.90;75.17
18819;BME280;9537;45.594;9.294;2023-02-01T04:12:45;100044.31;;;0.89;75.20
18819;BME280;9537;45.594;9.294;2023-02-01T04:13:47;100047.75;;;0.89;75.95
18819;BME280;9537;45.594;9.294;2023-02-01T04:14:48;100054.53;;;0.92;75.97
18819;BME280;9537;45.594;9.294;2023-02-01T04:15:50;100049.19;;;0.94;75.43
18819;BME280;9537;45.594;9.294;2023-02-01T04:16:51;100042.13;;;0.96;75.07
18819;BME280;9537;45.594;9.294;2023-02-01T04:17:53;100050.78;;;0.96;75.07
18819;BME280;9537;45.594;9.294;2023-02-01T04:18:54;100050.69;;;0.98;74.76
18819;BME280;9537;45.594;9.294;2023-02-01T04:19:56;100051.41;;;1.00;75.47
18819;BME280;9537;45.594;9.294;2023-02-01T04:20:57;100052.34;;;0.99;74.56
18819;BME280;9537;45.594;9.294;2023-02-01T04:21:59;100050.88;;;0.95;74.98
18819;BME280;9537;45.594;9.294;2023-02-01T04:23:00;100055.16;;;0.96;74.79
18819;BME280;9537;45.594;9.294;2023-02-01T04:24:05;100054.31;;;0.95;74.86
18819;BME280;9537;45.594;9.294;2023-02-01T04:25:07;100050.97;;;0.93;74.73
18819;BME280;9537;45.594;9.294;2023-02-01T04:26:09;100056.25;;;0.92;75.37
18819;BME280;9537;45.594;9.294;2023-02-01T04:27:10;100063.91;;;0.95;75.54
18819;BME280;9537;45.594;9.294;2023-02-01T04:28:13;100060.34;;;0.96;75.34
18819;BME280;9537;45.594;9.294;2023-02-01T04:29:14;100061.91;;;0.98;74.88
18819;BME280;9537;45.594;9.294;2023-02-01T04:30:16;100061.47;;;0.92;75.58
18819;BME280;9537;45.594;9.294;2023-02-01T04:31:18;100056.47;;;0.88;75.39
18819;BME280;9537;45.594;9.294;2023-02-01T04:32:25;100057.53;;;0.86;75.91
18819;BME280;9537;45.594;9.294;2023-02-01T04:33:27;100055.97;;;0.83;75.57
18819;BME280;9537;45.594;9.294;2023-02-01T04:34:29;100067.41;;;0.81;76.29
18819;BME280;9537;45.594;9.294;2023-02-01T04:35:30;100057.91;;;0.80;75.45
18819;BME280;9537;45.594;9.294;2023-02-01T04:36:32;100055.44;;;0.78;76.23
18819;BME280;9537;45.594;9.294;2023-02-01T04:37:34;100067.47;;;0.79;76.14
18819;BME280;9537;45.594;9.294;2023-02-01T04:38:35;100070.09;;;0.79;75.76
18819;BME280;9537;45.594;9.294;2023-02-01T04:39:38;100065.91;;;0.77;75.65
18819;BME280;9537;45.594;9.294;2023-02-01T04:40:39;100058.84;;;0.79;76.02
18819;BME280;9537;45.594;9.294;2023-02-01T04:41:41;100065.50;;;0.83;76.00
18819;BME280;9537;45.594;9.294;2023-02-01T04:42:42;100063.97;;;0.80;76.08
18819;BME280;9537;45.594;9.294;2023-02-01T04:43:45;100062.91;;;0.83;76.16
18819;BME280;9537;45.594;9.294;2023-02-01T04:44:46;100060.22;;;0.84;75.51
18819;BME280;9537;45.594;9.294;2023-02-01T04:45:49;100063.84;;;0.82;76.31
18819;BME280;9537;45.594;9.294;2023-02-01T04:46:50;100058.56;;;0.83;75.23
18819;BME280;9537;45.594;9.294;2023-02-01T04:47:52;100064.59;;;0.84;75.69
18819;BME280;9537;45.594;9.294;2023-02-01T04:48:53;100058.56;;;0.83;75.46
18819;BME280;9537;45.594;9.294;2023-02-01T04:49:54;100069.34;;;0.77;76.05
18819;BME280;9537;45.594;9.294;2023-02-01T04:50:55;100067.69;;;0.76;75.65
18819;BME280;9537;45.594;9.294;2023-02-01T04:51:57;100067.88;;;0.73;76.30
18819;BME280;9537;45.594;9.294;2023-02-01T04:52:58;100066.22;;;0.72;75.37
18819;BME280;9537;45.594;9.294;2023-02-01T04:54:03;100067.06;;;0.73;75.88
18819;BME280;9537;45.594;9.294;2023-02-01T04:55:11;100070.41;;;0.75;75.89
18819;BME280;9537;45.594;9.294;2023-02-01T04:56:14;100066.75;;;0.77;76.30
18819;BME280;9537;45.594;9.294;2023-02-01T04:57:15;100068.50;;;0.77;75.98
18819;BME280;9537;45.594;9.294;2023-02-01T04:58:17;100067.81;;;0.75;75.86
18819;BME280;9537;45.594;9.294;2023-02-01T04:59:17;100074.03;;;0.72;76.33
18819;BME280;9537;45.594;9.294;2023-02-01T05:00:20;100072.34;;;0.71;75.55
18819;BME280;9537;45.594;9.294;2023-02-01T05:01:22;100073.28;;;0.70;76.59
18819;BME280;9537;45.594;9.294;2023-02-01T05:02:25;100076.63;;;0.72;75.81
18819;BME280;9537;45.594;9.294;2023-02-01T05:03:26;100085.13;;;0.74;76.59
18819;BME280;9537;45.594;9.294;2023-02-01T05:04:28;100076.63;;;0.72;75.73
18819;BME280;9537;45.594;9.294;2023-02-01T05:05:29;100072.34;;;0.71;76.21
18819;BME280;9537;45.594;9.294;2023-02-01T05:06:31;100076.09;;;0.67;76.58
18819;BME280;9537;45.594;9.294;2023-02-01T05:07:32;100075.88;;;0.70;76.10
18819;BME280;9537;45.594;9.294;2023-02-01T05:08:34;100079.44;;;0.69;76.41
18819;BME280;9537;45.594;9.294;2023-02-01T05:09:35;100083.97;;;0.65;76.62
18819;BME280;9537;45.594;9.294;2023-02-01T05:10:38;100081.50;;;0.64;76.61
18819;BME280;9537;45.594;9.294;2023-02-01T05:11:39;100084.09;;;0.64;76.81
18819;BME280;9537;45.594;9.294;2023-02-01T05:12:59;100082.03;;;0.69;76.24
18819;BME280;9537;45.594;9.294;2023-02-01T05:14:18;100086.28;;;0.70;76.30
18819;BME280;9537;45.594;9.294;2023-02-01T05:15:20;100086.09;;;0.73;76.21
18819;BME280;9537;45.594;9.294;2023-02-01T05:16:21;100082.66;;;0.73;76.68
18819;BME280;9537;45.594;9.294;2023-02-01T05:17:23;100081.72;;;0.74;76.25
18819;BME280;9537;45.594;9.294;2023-02-01T05:18:24;100081.50;;;0.77;76.78
18819;BME280;9537;45.594;9.294;2023-02-01T05:19:26;100080.69;;;0.76;76.39
18819;BME280;9537;45.594;9.294;2023-02-01T05:20:26;100077.25;;;0.76;76.09
18819;BME280;9537;45.594;9.294;2023-02-01T05:21:28;100078.91;;;0.77;76.31
18819;BME280;9537;45.594;9.294;2023-02-01T05:22:29;100077.16;;;0.77;76.57
18819;BME280;9537;45.594;9.294;2023-02-01T05:23:31;100078.09;;;0.76;76.75
18819;BME280;9537;45.594;9.294;2023-02-01T05:24:32;100081.00;;;0.72;75.93
18819;BME280;9537;45.594;9.294;2023-02-01T05:25:34;100079.44;;;0.69;76.66
18819;BME280;9537;45.594;9.294;2023-02-01T05:26:37;100070.16;;;0.65;76.90
18819;BME280;9537;45.594;9.294;2023-02-01T05:27:39;100073.50;;;0.67;76.92
18819;BME280;9537;45.594;9.294;2023-02-01T05:28:40;100071.91;;;0.64;77.10
18819;BME280;9537;45.594;9.294;2023-02-01T05:29:42;100072.00;;;0.63;76.19
18819;BME280;9537;45.594;9.294;2023-02-01T05:30:44;100071.09;;;0.64;76.33
18819;BME280;9537;45.594;9.294;2023-02-01T05:31:45;100066.72;;;0.64;76.40
18819;BME280;9537;45.594;9.294;2023-02-01T05:32:49;100074.81;;;0.60;77.09
18819;BME280;9537;45.594;9.294;2023-02-01T05:33:50;100074.81;;;0.60;77.21
18819;BME280;9537;45.594;9.294;2023-02-01T05:34:52;100072.13;;;0.61;76.29
18819;BME280;9537;45.594;9.294;2023-02-01T05:35:53;100078.97;;;0.62;76.78
18819;BME280;9537;45.594;9.294;2023-02-01T05:36:55;100077.19;;;0.63;76.30
18819;BME280;9537;45.594;9.294;2023-02-01T05:37:56;100083.16;;;0.65;76.18
18819;BME280;9537;45.594;9.294;2023-02-01T05:38:58;100082.31;;;0.64;76.00
18819;BME280;9537;45.594;9.294;2023-02-01T05:39:59;100078.16;;;0.62;76.82
18819;BME280;9537;45.594;9.294;2023-02-01T05:41:01;100082.41;;;0.63;77.00
18819;BME280;9537;45.594;9.294;2023-02-01T05:42:03;100083.25;;;0.63;76.42
18819;BME280;9537;45.594;9.294;2023-02-01T05:43:06;100085.00;;;0.63;76.73
18819;BME280;9537;45.594;9.294;2023-02-01T05:44:07;100086.69;;;0.64;76.65
18819;BME280;9537;45.594;9.294;2023-02-01T05:45:09;100082.22;;;0.66;76.84
18819;BME280;9537;45.594;9.294;2023-02-01T05:46:10;100091.88;;;0.64;76.57
18819;BME280;9537;45.594;9.294;2023-02-01T05:47:13;100094.50;;;0.64;76.94
18819;BME280;9537;45.594;9.294;2023-02-01T05:48:15;100090.94;;;0.65;76.72
18819;BME280;9537;45.594;9.294;2023-02-01T05:49:16;100093.84;;;0.60;76.44
18819;BME280;9537;45.594;9.294;2023-02-01T05:50:18;100095.59;;;0.60;76.19
18819;BME280;9537;45.594;9.294;2023-02-01T05:51:19;100087.81;;;0.60;76.65
18819;BME280;9537;45.594;9.294;2023-02-01T05:52:20;100100.91;;;0.58;76.58